Time;durP1;ratioP1;P1;durP2;ratioP2;P2;SDS_P1;SDS_P2;PMS_P1;PMS_P2;Temp;Humidity;BMP_temperature;BMP_pressure;BME280_temperature;BME280_humidity;BME280_pressure;Samples;Min_cycle;Max_cycle;Signal;HPM_P1;HPM_P2
2022/12/09 00:02:02;;;;;;;8.25;7.55;;;9.00;99.90;;;;;;4216770;28;20322;-87
2022/12/09 00:04:22;;;;;;;7.60;7.07;;;9.00;99.90;;;;;;4212963;28;20071;-87
2022/12/09 00:06:44;;;;;;;7.20;6.90;;;9.00;99.90;;;;;;4215029;28;20043;-87
2022/12/09 00:09:04;;;;;;;6.05;5.53;;;9.00;99.90;;;;;;4203975;28;20064;-87
2022/12/09 00:11:25;;;;;;;13.55;10.73;;;9.10;99.90;;;;;;4216651;28;20079;-87
2022/12/09 00:13:54;;;;;;;12.27;8.98;;;9.00;99.90;;;;;;4230058;28;20232;-87
2022/12/09 00:16:14;;;;;;;6.82;6.25;;;9.10;99.90;;;;;;4217154;28;20326;-87
2022/12/09 00:18:37;;;;;;;6.13;5.63;;;9.10;99.90;;;;;;4225711;28;20066;-87
2022/12/09 00:21:35;;;;;;;10.25;7.15;;;9.10;99.90;;;;;;4232891;28;20112;-88
2022/12/09 00:23:57;;;;;;;6.97;6.38;;;9.20;99.90;;;;;;4228940;28;20084;-88
2022/12/09 00:26:20;;;;;;;6.10;5.70;;;9.10;99.90;;;;;;4210821;28;20044;-88
2022/12/09 00:28:40;;;;;;;6.15;5.82;;;9.10;99.90;;;;;;4213868;28;20118;-88
2022/12/09 00:31:35;;;;;;;6.00;5.68;;;9.10;99.90;;;;;;4231245;28;20153;-89
2022/12/09 00:33:57;;;;;;;5.35;4.75;;;9.10;99.90;;;;;;4174526;28;20060;-87
2022/12/09 00:36:45;;;;;;;5.55;5.22;;;9.20;99.90;;;;;;4174467;28;20468;-87
2022/12/09 00:39:06;;;;;;;6.60;5.40;;;9.30;99.90;;;;;;4132922;28;20088;-88
2022/12/09 00:41:29;;;;;;;5.90;5.60;;;9.30;99.90;;;;;;4139315;28;20150;-88
2022/12/09 00:43:52;;;;;;;5.05;4.78;;;9.30;99.90;;;;;;4137754;28;20257;-88
2022/12/09 00:46:38;;;;;;;4.75;4.45;;;9.30;99.90;;;;;;4135152;28;20057;-88
2022/12/09 00:48:59;;;;;;;6.10;5.75;;;9.30;99.90;;;;;;4115769;28;20130;-87
2022/12/09 00:51:22;;;;;;;4.57;4.43;;;9.30;99.90;;;;;;4120419;28;20123;-87
2022/12/09 00:53:53;;;;;;;5.60;5.30;;;9.30;99.90;;;;;;4120105;28;20057;-88
2022/12/09 00:56:14;;;;;;;5.25;4.93;;;9.30;99.90;;;;;;4118781;28;20049;-88
2022/12/09 00:58:35;;;;;;;4.90;4.60;;;9.30;99.90;;;;;;4117727;28;20385;-88
2022/12/09 01:00:58;;;;;;;5.47;4.97;;;9.30;99.90;;;;;;4115553;28;20467;-88
2022/12/09 01:03:18;;;;;;;;;;;9.30;99.90;;;;;;4122866;28;20090;-87
2022/12/09 01:06:19;;;;;;;7.63;4.60;;;9.40;99.90;;;;;;4116479;28;20117;-88
2022/12/09 01:08:40;;;;;;;5.95;5.30;;;9.40;99.90;;;;;;4080294;29;21201;-88
2022/12/09 01:11:15;;;;;;;5.07;4.70;;;9.40;99.90;;;;;;4118991;28;20242;-88
2022/12/09 01:13:34;;;;;;;5.25;5.00;;;9.40;99.90;;;;;;4116408;28;20050;-88
2022/12/09 01:15:55;;;;;;;5.47;5.18;;;9.40;99.90;;;;;;4116085;28;20246;-88
2022/12/09 01:18:19;;;;;;;5.78;5.30;;;9.40;99.90;;;;;;4136409;28;20084;-87
2022/12/09 01:21:16;;;;;;;5.47;5.28;;;9.40;99.90;;;;;;4128424;28;20053;-88
2022/12/09 01:23:36;;;;;;;5.28;5.03;;;9.40;99.90;;;;;;4045842;29;20052;-88
2022/12/09 01:26:07;;;;;;;6.55;5.88;;;9.40;99.90;;;;;;4094150;29;20243;-88
2022/12/09 01:28:27;;;;;;;4.72;4.10;;;9.40;99.90;;;;;;4082610;29;20162;-88
2022/12/09 01:31:18;;;;;;;5.60;5.15;;;9.40;99.90;;;;;;4092980;29;20074;-88
2022/12/09 01:33:40;;;;;;;5.38;4.70;;;9.40;99.90;;;;;;4090609;29;20338;-88
2022/12/09 01:36:08;;;;;;;4.78;4.57;;;9.40;99.90;;;;;;4090950;29;20050;-88
2022/12/09 01:38:28;;;;;;;5.05;4.90;;;9.50;99.90;;;;;;4091028;29;20099;-88
2022/12/09 01:41:17;;;;;;;5.30;4.82;;;9.40;99.90;;;;;;4092203;29;20091;-88
2022/12/09 01:43:42;;;;;;;4.82;3.53;;;9.40;99.90;;;;;;4068168;29;20038;-88
2022/12/09 01:46:29;;;;;;;4.35;4.25;;;9.40;99.90;;;;;;4093519;29;20358;-88
2022/12/09 01:48:49;;;;;;;6.18;5.65;;;9.40;99.90;;;;;;4046026;29;20415;-88
2022/12/09 01:51:18;;;;;;;4.72;4.43;;;9.50;99.90;;;;;;4046969;29;20064;-88
2022/12/09 01:53:43;;;;;;;4.72;4.30;;;9.60;99.90;;;;;;4049787;29;20188;-87
2022/12/09 01:56:29;;;;;;;5.32;4.90;;;9.60;99.90;;;;;;4065000;29;20051;-88
2022/12/09 01:58:51;;;;;;;4.45;4.35;;;9.60;99.90;;;;;;4066792;29;20105;-88
2022/12/09 02:01:13;;;;;;;4.57;3.78;;;9.50;99.90;;;;;;4067478;29;20051;-88
2022/12/09 02:03:34;;;;;;;4.07;3.77;;;9.50;99.90;;;;;;4061082;29;20415;-88
2022/12/09 02:05:57;;;;;;;3.70;3.47;;;9.50;99.90;;;;;;4055425;29;20052;-88
2022/12/09 02:08:18;;;;;;;4.80;4.47;;;9.60;99.90;;;;;;4061582;29;20121;-88
2022/12/09 02:11:05;;;;;;;9.35;4.63;;;9.70;99.90;;;;;;4090323;29;20327;-88
2022/12/09 02:13:46;;;;;;;4.00;3.83;;;9.70;99.90;;;;;;4087436;29;20055;-88
2022/12/09 02:16:22;;;;;;;4.82;3.83;;;9.70;99.90;;;;;;4083251;29;20291;-88
2022/12/09 02:18:53;;;;;;;4.25;4.15;;;9.60;99.90;;;;;;4096898;29;20133;-88
2022/12/09 02:21:33;;;;;;;4.60;4.40;;;9.70;99.90;;;;;;4145193;28;20080;-88
2022/12/09 02:24:14;;;;;;;6.35;3.85;;;9.70;99.90;;;;;;4151286;28;20041;-88
2022/12/09 02:26:42;;;;;;;6.93;4.88;;;9.70;99.90;;;;;;4219167;28;20058;-88
2022/12/09 02:29:18;;;;;;;3.90;3.65;;;9.70;99.90;;;;;;4232235;28;20085;-88
2022/12/09 02:31:58;;;;;;;6.47;4.78;;;9.70;99.90;;;;;;4219256;28;20078;-89
2022/12/09 02:34:25;;;;;;;4.70;4.50;;;9.70;99.90;;;;;;4200820;28;20455;-88
2022/12/09 02:37:02;;;;;;;4.45;4.25;;;9.70;99.90;;;;;;4176613;28;20059;-89
2022/12/09 02:39:36;;;;;;;4.65;4.50;;;9.60;99.90;;;;;;4196129;28;20051;-88
2022/12/09 02:41:59;;;;;;;4.25;3.95;;;9.60;99.90;;;;;;4181895;28;20133;-88
2022/12/09 02:44:21;;;;;;;7.72;4.93;;;9.60;99.90;;;;;;4189876;28;20087;-88
2022/12/09 02:46:44;;;;;;;4.28;4.07;;;9.60;99.90;;;;;;4173180;28;20044;-89
2022/12/09 02:49:04;;;;;;;4.55;4.45;;;9.50;99.90;;;;;;4185233;28;20110;-88
2022/12/09 02:51:56;;;;;;;6.05;5.68;;;9.50;99.90;;;;;;4181971;28;20076;-88
2022/12/09 02:54:17;;;;;;;10.80;9.80;;;9.50;99.90;;;;;;4155366;28;20245;-89
2022/12/09 02:56:44;;;;;;;7.03;6.38;;;9.50;99.90;;;;;;4156519;28;20337;-88
2022/12/09 02:59:06;;;;;;;5.55;5.15;;;9.50;99.90;;;;;;4150121;28;20277;-89
2022/12/09 03:01:42;;;;;;;6.32;6.05;;;9.40;99.90;;;;;;4149714;28;20049;-88
2022/12/09 03:04:02;;;;;;;5.70;5.25;;;9.40;99.90;;;;;;4156558;28;20375;-88
2022/12/09 03:06:29;;;;;;;5.60;5.30;;;9.40;99.90;;;;;;4156610;28;20081;-88
2022/12/09 03:08:57;;;;;;;4.13;3.92;;;9.40;99.90;;;;;;4155560;28;20117;-89
2022/12/09 03:11:20;;;;;;;7.93;6.05;;;9.50;99.90;;;;;;4141768;28;20041;-88
2022/12/09 03:14:02;;;;;;;4.63;4.32;;;9.40;99.90;;;;;;4155637;28;20166;-88
2022/12/09 03:16:45;;;;;;;5.15;4.82;;;9.40;99.90;;;;;;4156063;28;20096;-88
2022/12/09 03:19:08;;;;;;;4.95;4.53;;;9.50;99.90;;;;;;4163251;28;20157;-88
2022/12/09 03:21:31;;;;;;;6.18;4.63;;;9.50;99.90;;;;;;4167674;28;20077;-88
2022/12/09 03:23:55;;;;;;;6.18;5.22;;;9.40;99.90;;;;;;4170900;28;20087;-88
2022/12/09 03:26:16;;;;;;;5.53;5.32;;;9.40;99.90;;;;;;4173522;28;20124;-88
2022/12/09 03:28:41;;;;;;;5.75;5.53;;;9.50;99.90;;;;;;4166979;28;20114;-88
2022/12/09 03:31:12;;;;;;;3.97;3.78;;;9.50;99.90;;;;;;4205790;28;20062;-88
2022/12/09 03:33:32;;;;;;;5.10;4.63;;;9.50;99.90;;;;;;4222974;28;20424;-88
2022/12/09 03:35:56;;;;;;;5.20;4.80;;;9.40;99.90;;;;;;4230796;28;20046;-88
2022/12/09 03:38:20;;;;;;;4.63;4.43;;;9.40;99.90;;;;;;4218235;28;20102;-88
2022/12/09 03:41:07;;;;;;;5.72;5.22;;;9.50;99.90;;;;;;4228797;28;20038;-88
2022/12/09 03:43:32;;;;;;;5.32;4.93;;;9.50;99.90;;;;;;4165933;28;20048;-88
2022/12/09 03:45:56;;;;;;;4.25;4.00;;;9.60;99.90;;;;;;4175727;28;20095;-87
2022/12/09 03:48:17;;;;;;;5.07;4.25;;;9.60;99.90;;;;;;4152979;28;20177;-88
2022/12/09 03:50:50;;;;;;;6.28;5.82;;;9.60;99.90;;;;;;4176833;28;20052;-87
2022/12/09 03:53:19;;;;;;;4.88;4.68;;;9.60;99.90;;;;;;4178345;28;20168;-87
2022/12/09 03:56:11;;;;;;;4.35;4.15;;;9.60;99.90;;;;;;4144356;28;20074;-87
2022/12/09 03:58:33;;;;;;;8.43;4.47;;;9.60;99.90;;;;;;4123254;28;20408;-87
2022/12/09 04:00:53;;;;;;;4.30;3.90;;;9.70;99.90;;;;;;4125914;28;20042;-87
2022/12/09 04:03:15;;;;;;;3.90;3.38;;;9.70;99.90;;;;;;4107612;28;20066;-87
2022/12/09 04:05:36;;;;;;;3.97;3.78;;;9.80;99.90;;;;;;4092991;29;20365;-87
2022/12/09 04:07:56;;;;;;;4.25;3.58;;;9.90;99.90;;;;;;4103317;28;20046;-87
2022/12/09 04:10:18;;;;;;;4.28;4.05;;;10.00;99.90;;;;;;4097698;28;20254;-87
2022/12/09 04:12:39;;;;;;;4.23;3.93;;;10.20;99.90;;;;;;4101942;29;20086;-87
2022/12/09 04:14:59;;;;;;;5.30;4.05;;;10.20;99.90;;;;;;4096580;29;20078;-87
2022/12/09 04:17:18;;;;;;;5.15;4.70;;;10.10;99.90;;;;;;4096234;28;20054;-88
2022/12/09 04:19:39;;;;;;;3.90;3.70;;;10.20;99.90;;;;;;4114960;28;20083;-87
2022/12/09 04:22:00;;;;;;;3.70;3.50;;;10.30;99.90;;;;;;4141658;28;20082;-88
2022/12/09 04:24:20;;;;;;;3.92;3.58;;;10.30;99.90;;;;;;4164189;28;20052;-87
2022/12/09 04:27:08;;;;;;;4.47;4.15;;;10.20;99.90;;;;;;4171539;28;20048;-87
2022/12/09 04:29:30;;;;;;;4.45;4.15;;;10.20;99.90;;;;;;4147937;28;20144;-87
2022/12/09 04:32:19;;;;;;;3.33;3.13;;;10.10;99.90;;;;;;4147093;28;20053;-88
2022/12/09 04:34:38;;;;;;;4.50;3.63;;;10.20;99.90;;;;;;4136663;28;20140;-87
2022/12/09 04:36:58;;;;;;;6.25;4.32;;;10.20;99.90;;;;;;4109338;28;20062;-87
2022/12/09 04:39:18;;;;;;;3.53;3.42;;;10.30;99.90;;;;;;4105752;29;20058;-88
2022/12/09 04:41:40;;;;;;;4.60;4.30;;;10.30;99.90;;;;;;4108570;28;20054;-88
2022/12/09 04:44:00;;;;;;;3.65;3.47;;;10.30;99.90;;;;;;4114921;28;20352;-88
2022/12/09 04:46:29;;;;;;;3.95;3.00;;;10.30;99.90;;;;;;4113339;28;20443;-88
2022/12/09 04:48:49;;;;;;;4.80;3.95;;;10.20;99.90;;;;;;4116915;28;20081;-87
2022/12/09 04:51:36;;;;;;;5.45;4.95;;;10.20;99.90;;;;;;4119561;28;20063;-87
2022/12/09 04:54:00;;;;;;;4.13;3.78;;;10.20;99.90;;;;;;4094029;29;20262;-88
2022/12/09 04:56:50;;;;;;;5.05;4.70;;;10.20;99.90;;;;;;4102249;29;20058;-88
2022/12/09 04:59:12;;;;;;;4.15;3.95;;;10.10;99.90;;;;;;4077814;29;20276;-87
2022/12/09 05:02:00;;;;;;;5.65;5.20;;;10.20;99.90;;;;;;4083106;29;20063;-88
2022/12/09 05:04:21;;;;;;;5.55;4.97;;;10.10;99.90;;;;;;4061831;29;20080;-88
2022/12/09 05:06:55;;;;;;;6.43;4.47;;;10.20;99.90;;;;;;4050468;29;20055;-87
2022/12/09 05:09:19;;;;;;;5.60;5.18;;;10.20;99.90;;;;;;4056724;29;20081;-87
2022/12/09 05:12:09;;;;;;;4.82;4.43;;;10.20;99.90;;;;;;4063709;29;20056;-88
2022/12/09 05:14:29;;;;;;;5.57;4.65;;;10.30;99.90;;;;;;4049219;29;20105;-88
2022/12/09 05:16:49;;;;;;;3.85;3.75;;;10.20;99.90;;;;;;4046822;29;20387;-88
2022/12/09 05:19:10;;;;;;;5.15;4.55;;;10.30;99.90;;;;;;4045694;29;20297;-88
2022/12/09 05:21:59;;;;;;;5.32;4.95;;;10.20;99.90;;;;;;4046622;29;20199;-88
2022/12/09 05:24:34;;;;;;;5.70;5.20;;;10.20;99.90;;;;;;4001507;29;20049;-88
2022/12/09 05:27:52;;;;;;;6.32;4.18;;;10.30;99.90;;;;;;3999732;29;20057;-87
2022/12/09 05:30:12;;;;;;;6.45;4.70;;;10.20;99.90;;;;;;4014947;29;20040;-87
2022/12/09 05:32:48;;;;;;;7.25;4.88;;;10.20;99.90;;;;;;4012937;29;20064;-88
2022/12/09 05:35:28;;;;;;;5.63;4.13;;;10.20;99.90;;;;;;4030112;29;20079;-88
2022/12/09 05:37:48;;;;;;;4.95;4.60;;;10.20;99.90;;;;;;3997160;29;20061;-88
2022/12/09 05:40:12;;;;;;;7.38;6.72;;;10.10;99.90;;;;;;4015698;29;20110;-88
2022/12/09 05:42:33;;;;;;;8.68;5.40;;;10.10;99.90;;;;;;4061549;29;20048;-88
2022/12/09 05:45:27;;;;;;;5.00;4.57;;;10.20;99.90;;;;;;4074579;29;20172;-88
2022/12/09 05:47:47;;;;;;;9.48;4.78;;;10.10;99.90;;;;;;4061416;29;20047;-88
2022/12/09 05:50:34;;;;;;;4.13;3.97;;;10.20;99.90;;;;;;4049002;29;20443;-88
2022/12/09 05:52:57;;;;;;;6.53;4.75;;;10.10;99.90;;;;;;4071438;29;20055;-88
2022/12/09 05:55:47;;;;;;;6.75;4.13;;;10.20;99.90;;;;;;4062347;29;20419;-88
2022/12/09 05:58:22;;;;;;;6.20;5.50;;;10.20;99.90;;;;;;4056665;29;20058;-88
2022/12/09 06:01:08;;;;;;;8.10;4.97;;;10.20;99.90;;;;;;4049053;29;20047;-87
2022/12/09 06:03:29;;;;;;;5.13;4.72;;;10.40;99.90;;;;;;4027571;29;20162;-87
2022/12/09 06:05:54;;;;;;;5.18;4.97;;;10.40;99.90;;;;;;4043789;29;20091;-87
2022/12/09 06:08:16;;;;;;;5.20;4.78;;;10.50;99.90;;;;;;4030930;29;20101;-87
2022/12/09 06:10:39;;;;;;;7.17;6.13;;;10.50;99.90;;;;;;4034721;29;20056;-88
2022/12/09 06:12:59;;;;;;;8.00;5.55;;;10.50;99.90;;;;;;4059509;29;20329;-88
2022/12/09 06:15:22;;;;;;;7.03;5.85;;;10.60;99.90;;;;;;4046420;29;20052;-88
2022/12/09 06:17:51;;;;;;;6.60;5.47;;;10.60;99.90;;;;;;4061717;29;20051;-87
2022/12/09 06:20:15;;;;;;;9.27;5.90;;;10.60;99.90;;;;;;4057761;29;20089;-87
2022/12/09 06:22:35;;;;;;;6.57;5.88;;;10.60;99.90;;;;;;4061527;29;20056;-87
2022/12/09 06:24:58;;;;;;;6.35;5.78;;;10.70;99.90;;;;;;4068922;29;20047;-88
2022/12/09 06:27:20;;;;;;;6.30;5.70;;;10.70;99.90;;;;;;4063772;29;20379;-87
2022/12/09 06:29:41;;;;;;;9.75;6.85;;;10.80;99.90;;;;;;4085259;29;20047;-87
2022/12/09 06:32:01;;;;;;;9.68;5.28;;;10.80;99.90;;;;;;4093002;29;20114;-88
2022/12/09 06:34:22;;;;;;;8.13;5.43;;;10.90;99.90;;;;;;4140164;28;20420;-88
2022/12/09 06:36:42;;;;;;;13.18;6.30;;;10.90;99.90;;;;;;4216712;28;20070;-88
2022/12/09 06:39:03;;;;;;;9.07;5.95;;;10.90;99.90;;;;;;4202468;28;20047;-88
2022/12/09 06:41:31;;;;;;;12.75;5.90;;;10.90;99.90;;;;;;4181929;28;20113;-88
2022/12/09 06:43:51;;;;;;;10.98;5.70;;;10.90;99.90;;;;;;4185631;28;20110;-88
2022/12/09 06:46:21;;;;;;;5.82;5.50;;;11.00;99.90;;;;;;4202122;28;20043;-88
2022/12/09 06:48:42;;;;;;;13.05;7.47;;;11.00;99.90;;;;;;4187088;28;20076;-88
2022/12/09 06:51:04;;;;;;;17.10;5.88;;;11.00;99.90;;;;;;4185702;28;20045;-88
2022/12/09 06:53:25;;;;;;;10.32;6.38;;;11.00;99.90;;;;;;4201237;28;20117;-88
2022/12/09 06:55:45;;;;;;;14.50;7.53;;;11.00;99.90;;;;;;4187381;28;20079;-88
2022/12/09 06:58:06;;;;;;;15.05;5.82;;;11.10;99.90;;;;;;4202651;28;20048;-88
2022/12/09 07:00:27;;;;;;;9.98;7.50;;;11.10;99.90;;;;;;4182077;28;20060;-88
2022/12/09 07:02:47;;;;;;;17.20;5.18;;;11.00;99.90;;;;;;4189244;28;20430;-89
2022/12/09 07:05:08;;;;;;;19.58;7.75;;;11.00;99.90;;;;;;4202497;28;20171;-85
2022/12/09 07:07:29;;;;;;;19.10;6.70;;;11.00;99.90;;;;;;4190258;28;20340;-86
2022/12/09 07:09:49;;;;;;;16.65;5.18;;;11.00;99.90;;;;;;4208888;28;20089;-85
2022/12/09 07:12:09;;;;;;;13.07;6.13;;;11.00;99.90;;;;;;4226995;28;20093;-86
2022/12/09 07:14:30;;;;;;;12.80;5.00;;;11.00;99.90;;;;;;4231296;28;20113;-85
2022/12/09 07:16:50;;;;;;;14.27;5.65;;;11.10;99.90;;;;;;4230058;28;20361;-85
2022/12/09 07:19:16;;;;;;;19.42;5.32;;;11.10;99.90;;;;;;4227313;28;20034;-85
2022/12/09 07:21:37;;;;;;;11.88;7.20;;;11.00;99.90;;;;;;4216675;28;20055;-85
2022/12/09 07:24:01;;;;;;;17.77;7.18;;;11.10;99.90;;;;;;4223937;28;20046;-85
2022/12/09 07:26:21;;;;;;;27.45;7.30;;;11.10;99.90;;;;;;4214545;28;20065;-86
2022/12/09 07:28:42;;;;;;;19.63;6.43;;;11.10;99.90;;;;;;4233284;28;20061;-86
2022/12/09 07:31:02;;;;;;;19.88;7.47;;;11.20;99.90;;;;;;4229929;28;20103;-86
2022/12/09 07:33:23;;;;;;;20.65;6.38;;;11.30;99.90;;;;;;4230713;28;20058;-86
2022/12/09 07:35:43;;;;;;;21.10;8.23;;;11.20;99.90;;;;;;4228046;28;20108;-86
2022/12/09 07:38:04;;;;;;;23.42;7.82;;;11.30;99.90;;;;;;4221548;28;20404;-85
2022/12/09 07:40:26;;;;;;;14.82;6.93;;;11.40;99.90;;;;;;4231710;28;20038;-85
2022/12/09 07:42:46;;;;;;;14.90;8.20;;;11.50;99.90;;;;;;4215300;28;20047;-85
2022/12/09 07:45:08;;;;;;;22.77;9.50;;;11.50;99.90;;;;;;4232149;28;20058;-85
2022/12/09 07:47:28;;;;;;;17.13;7.50;;;11.50;99.90;;;;;;4231849;28;20084;-85
2022/12/09 07:49:48;;;;;;;24.08;8.52;;;11.50;99.90;;;;;;4228656;28;20046;-85
2022/12/09 07:52:11;;;;;;;21.58;7.97;;;11.50;99.90;;;;;;4227718;28;20089;-86
2022/12/09 07:54:30;;;;;;;32.67;7.50;;;11.50;99.90;;;;;;4213734;28;20052;-86
2022/12/09 07:56:50;;;;;;;22.63;7.68;;;11.50;99.90;;;;;;4217580;28;20046;-86
2022/12/09 07:59:12;;;;;;;19.05;6.55;;;11.50;99.90;;;;;;4228303;28;20046;-85
2022/12/09 08:01:33;;;;;;;19.70;7.13;;;11.60;99.90;;;;;;4222285;28;20081;-85
2022/12/09 08:03:54;;;;;;;19.58;7.70;;;11.70;99.90;;;;;;4219038;28;20059;-86
2022/12/09 08:06:20;;;;;;;19.23;6.85;;;11.70;99.90;;;;;;4231803;28;20080;-86
2022/12/09 08:08:42;;;;;;;25.85;8.63;;;11.80;99.90;;;;;;4217981;28;20040;-85
2022/12/09 08:11:13;;;;;;;22.35;6.55;;;11.80;99.90;;;;;;4218104;28;20087;-85
2022/12/09 08:13:35;;;;;;;16.95;5.30;;;12.00;99.90;;;;;;4228033;28;20239;-85
2022/12/09 08:16:05;;;;;;;22.92;6.88;;;12.10;99.90;;;;;;4222282;28;20046;-85
2022/12/09 08:18:26;;;;;;;14.20;6.47;;;12.20;99.90;;;;;;4214931;28;20308;-85
2022/12/09 08:20:46;;;;;;;21.63;5.90;;;12.40;99.90;;;;;;4228080;28;20050;-85
2022/12/09 08:23:07;;;;;;;18.90;5.03;;;12.40;99.90;;;;;;4219714;28;20044;-85
2022/12/09 08:25:28;;;;;;;32.08;5.97;;;12.50;99.90;;;;;;4222536;28;20081;-85
2022/12/09 08:27:48;;;;;;;17.08;5.95;;;12.50;99.90;;;;;;4228363;28;20243;-86
2022/12/09 08:30:09;;;;;;;15.07;4.78;;;12.60;99.90;;;;;;4228177;28;20047;-85
2022/12/09 08:32:30;;;;;;;19.48;5.60;;;12.60;99.90;;;;;;4230730;28;20528;-85
2022/12/09 08:34:50;;;;;;;22.63;5.20;;;12.60;99.90;;;;;;4213221;28;20063;-85
2022/12/09 08:37:10;;;;;;;15.02;5.47;;;12.60;99.90;;;;;;4226647;28;20051;-85
2022/12/09 08:39:31;;;;;;;8.05;4.43;;;12.70;99.90;;;;;;4214970;28;20101;-85
2022/12/09 08:41:52;;;;;;;25.50;6.07;;;12.60;99.90;;;;;;4230233;28;20388;-85
2022/12/09 08:44:18;;;;;;;16.45;4.70;;;12.50;99.90;;;;;;4216566;28;20228;-84
2022/12/09 08:46:42;;;;;;;19.60;5.03;;;12.70;99.90;;;;;;4211773;28;20098;-85
2022/12/09 08:49:03;;;;;;;9.70;4.43;;;12.70;99.90;;;;;;4230571;28;20043;-85
2022/12/09 08:51:24;;;;;;;12.38;4.70;;;12.80;99.90;;;;;;4228199;28;20062;-84
2022/12/09 08:53:45;;;;;;;27.20;5.63;;;12.90;99.90;;;;;;4233275;28;20051;-85
2022/12/09 08:56:13;;;;;;;21.10;5.72;;;12.90;99.90;;;;;;4232218;28;20078;-85
2022/12/09 08:58:33;;;;;;;12.50;5.43;;;12.90;99.90;;;;;;4230533;28;20070;-84
2022/12/09 09:00:53;;;;;;;17.45;4.70;;;13.00;99.90;;;;;;4218027;28;20056;-85
2022/12/09 09:03:13;;;;;;;17.65;5.10;;;13.10;99.90;;;;;;4214817;28;20138;-85
2022/12/09 09:05:35;;;;;;;26.55;7.25;;;13.10;99.90;;;;;;4221586;28;20089;-85
2022/12/09 09:07:55;;;;;;;14.68;4.55;;;13.10;99.90;;;;;;4233065;28;20046;-85
2022/12/09 09:10:16;;;;;;;23.05;4.28;;;13.20;99.90;;;;;;4214490;28;20090;-85
2022/12/09 09:12:37;;;;;;;21.73;5.93;;;13.20;99.90;;;;;;4222108;28;20047;-84
2022/12/09 09:15:03;;;;;;;10.95;4.28;;;13.20;99.90;;;;;;4222285;28;20047;-85
2022/12/09 09:17:24;;;;;;;22.70;5.53;;;13.20;99.90;;;;;;4213661;28;20246;-85
2022/12/09 09:19:44;;;;;;;19.70;5.63;;;13.20;99.90;;;;;;4221854;28;20074;-83
2022/12/09 09:22:04;;;;;;;24.00;5.25;;;13.20;99.90;;;;;;4230575;28;20047;-84
2022/12/09 09:24:24;;;;;;;25.52;7.68;;;13.20;99.90;;;;;;4230946;28;20081;-84
2022/12/09 09:26:47;;;;;;;15.20;4.93;;;13.20;99.90;;;;;;4227452;28;20050;-84
2022/12/09 09:29:09;;;;;;;12.98;4.43;;;13.20;99.90;;;;;;4227338;28;20073;-84
2022/12/09 09:31:30;;;;;;;16.02;7.35;;;13.20;99.90;;;;;;4222168;28;20050;-84
2022/12/09 09:33:50;;;;;;;10.75;4.72;;;13.20;99.90;;;;;;4228288;28;20424;-84
2022/12/09 09:36:14;;;;;;;13.23;6.40;;;13.20;99.90;;;;;;4233197;28;20043;-84
2022/12/09 09:38:34;;;;;;;20.02;7.57;;;13.20;99.90;;;;;;4229817;28;20050;-84
2022/12/09 09:40:55;;;;;;;21.70;5.53;;;13.20;99.90;;;;;;4228804;28;20043;-84
2022/12/09 09:43:18;;;;;;;21.17;6.47;;;13.10;99.90;;;;;;4225740;28;20097;-84
2022/12/09 09:45:38;;;;;;;11.15;5.78;;;13.20;99.90;;;;;;4214504;28;20060;-84
2022/12/09 09:48:01;;;;;;;12.98;5.20;;;13.20;99.90;;;;;;4217299;28;20074;-84
2022/12/09 09:50:36;;;;;;;12.50;5.35;;;13.20;99.90;;;;;;4214677;28;20103;-84
2022/12/09 09:52:56;;;;;;;25.40;6.10;;;13.20;99.90;;;;;;4230581;28;20055;-84
2022/12/09 09:55:29;;;;;;;12.02;4.82;;;13.20;99.90;;;;;;4219187;28;20073;-84
2022/12/09 09:58:06;;;;;;;13.45;5.78;;;13.20;99.90;;;;;;4214161;28;20362;-84
2022/12/09 10:00:37;;;;;;;15.85;5.60;;;13.20;99.90;;;;;;4226455;28;20085;-84
2022/12/09 10:03:03;;;;;;;24.00;6.30;;;13.20;99.90;;;;;;4224228;28;20063;-83
2022/12/09 10:05:42;;;;;;;18.00;5.05;;;13.20;99.90;;;;;;4232566;28;20055;-83
2022/12/09 10:08:03;;;;;;;20.02;4.97;;;13.20;99.90;;;;;;4220196;28;20043;-84
2022/12/09 10:10:52;;;;;;;17.42;4.47;;;13.20;99.90;;;;;;4232051;28;20050;-84
2022/12/09 10:13:38;;;;;;;16.63;4.10;;;13.20;99.90;;;;;;4228076;28;20047;-84
2022/12/09 10:16:13;;;;;;;11.02;5.40;;;13.10;99.90;;;;;;4229192;28;20111;-84
2022/12/09 10:18:54;;;;;;;14.00;5.30;;;13.10;99.90;;;;;;4236376;28;20046;-84
2022/12/09 10:21:17;;;;;;;21.65;4.35;;;13.10;99.90;;;;;;4224499;28;20047;-84
2022/12/09 10:23:37;;;;;;;16.98;6.07;;;13.20;99.90;;;;;;4221512;28;20081;-84
2022/12/09 10:26:01;;;;;;;16.58;5.07;;;13.20;99.90;;;;;;4218244;28;20050;-84
2022/12/09 10:28:26;;;;;;;16.27;5.35;;;13.20;99.90;;;;;;4233601;28;20369;-84
2022/12/09 10:30:48;;;;;;;20.10;4.97;;;13.20;99.90;;;;;;4230774;28;20047;-84
2022/12/09 10:33:14;;;;;;;15.77;4.55;;;13.20;99.90;;;;;;4220517;28;20082;-84
2022/12/09 10:35:36;;;;;;;17.15;6.82;;;13.20;99.90;;;;;;4217001;28;20039;-84
2022/12/09 10:38:12;;;;;;;17.50;6.20;;;13.20;99.90;;;;;;4215780;28;20052;-84
2022/12/09 10:40:48;;;;;;;15.43;5.78;;;13.20;99.90;;;;;;4217265;28;20066;-84
2022/12/09 10:43:37;;;;;;;22.60;6.50;;;13.30;99.90;;;;;;4219073;28;20047;-84
2022/12/09 10:46:00;;;;;;;10.60;4.60;;;13.30;99.90;;;;;;4230552;28;20092;-84
2022/12/09 10:48:46;;;;;;;21.58;6.35;;;13.30;99.90;;;;;;4223996;28;20058;-84
2022/12/09 10:51:14;;;;;;;18.83;4.55;;;13.30;99.90;;;;;;4235924;28;20054;-85
2022/12/09 10:53:35;;;;;;;13.80;5.43;;;13.40;99.90;;;;;;4217906;28;20090;-85
2022/12/09 10:55:58;;;;;;;13.95;5.38;;;13.40;99.90;;;;;;4231337;28;20066;-85
2022/12/09 10:58:22;;;;;;;13.63;5.88;;;13.50;99.90;;;;;;4231924;28;20055;-85
2022/12/09 11:00:43;;;;;;;28.15;7.22;;;13.50;99.90;;;;;;4217552;28;20097;-85
2022/12/09 11:03:03;;;;;;;17.73;5.70;;;13.50;99.90;;;;;;4219176;28;20105;-85
2022/12/09 11:05:32;;;;;;;17.15;6.43;;;13.60;99.90;;;;;;4216357;28;20370;-85
2022/12/09 11:07:55;;;;;;;18.00;5.35;;;13.50;99.90;;;;;;4233348;28;20103;-85
2022/12/09 11:10:17;;;;;;;;;;;13.50;99.90;;;;;;4232436;28;20043;-85
2022/12/09 11:12:38;;;;;;;26.70;5.80;;;13.50;99.90;;;;;;4211767;28;19939;-85
2022/12/09 11:15:23;;;;;;;20.70;5.63;;;13.40;99.90;;;;;;4233716;28;20078;-85
2022/12/09 11:17:59;;;;;;;15.07;5.60;;;13.40;99.90;;;;;;4225631;28;20051;-85
2022/12/09 11:20:22;;;;;;;13.93;4.57;;;13.30;99.90;;;;;;4231067;28;20054;-85
2022/12/09 11:22:44;;;;;;;15.52;5.35;;;13.20;99.90;;;;;;4218692;28;20223;-85
2022/12/09 11:25:19;;;;;;;15.85;5.57;;;13.20;99.90;;;;;;4215089;28;20063;-85
2022/12/09 11:28:04;;;;;;;10.50;4.63;;;13.10;99.90;;;;;;4216609;28;20194;-85
2022/12/09 11:30:33;;;;;;;12.60;4.85;;;13.10;99.90;;;;;;4214871;28;20058;-85
2022/12/09 11:32:55;;;;;;;16.02;4.65;;;13.20;99.90;;;;;;4223429;28;20069;-85
2022/12/09 11:35:25;;;;;;;21.73;5.33;;;13.20;99.90;;;;;;4229025;28;20362;-85
2022/12/09 11:37:46;;;;;;;10.00;4.72;;;13.20;99.90;;;;;;4232660;28;20077;-85
2022/12/09 11:40:15;;;;;;;22.70;6.85;;;13.20;99.90;;;;;;4227661;28;20050;-85
2022/12/09 11:42:35;;;;;;;13.50;4.70;;;13.20;99.90;;;;;;4234343;28;20047;-85
2022/12/09 11:45:16;;;;;;;12.82;4.97;;;13.30;99.90;;;;;;4216533;28;20093;-85
2022/12/09 11:47:39;;;;;;;9.70;4.95;;;13.30;99.90;;;;;;4231802;28;20153;-85
2022/12/09 11:50:31;;;;;;;9.43;3.80;;;13.30;99.90;;;;;;4225637;28;20059;-85
2022/12/09 11:53:16;;;;;;;10.05;4.63;;;13.30;99.90;;;;;;4230778;28;20043;-85
2022/12/09 11:55:45;;;;;;;8.35;3.97;;;13.30;99.90;;;;;;4229589;28;20052;-85
2022/12/09 11:58:13;;;;;;;14.00;4.50;;;13.30;99.90;;;;;;4232668;28;20074;-85
2022/12/09 12:00:47;;;;;;;9.00;4.32;;;13.30;99.90;;;;;;4212726;28;20256;-85
2022/12/09 12:03:22;;;;;;;10.98;4.25;;;13.30;99.90;;;;;;4228448;28;20113;-85
2022/12/09 12:05:49;;;;;;;13.05;4.57;;;13.30;99.90;;;;;;4223337;28;20039;-85
2022/12/09 12:08:20;;;;;;;15.05;4.00;;;13.40;99.90;;;;;;4229454;28;20123;-85
2022/12/09 12:10:50;;;;;;;8.18;4.13;;;13.40;99.90;;;;;;4231165;28;20107;-85
2022/12/09 12:13:28;;;;;;;15.52;3.95;;;13.50;99.90;;;;;;4229019;28;20051;-85
2022/12/09 12:16:18;;;;;;;10.23;3.38;;;13.50;99.90;;;;;;4226838;28;20069;-85
2022/12/09 12:18:51;;;;;;;6.03;3.78;;;13.50;99.90;;;;;;4219454;28;20142;-85
2022/12/09 12:21:19;;;;;;;8.73;4.10;;;13.40;99.90;;;;;;4227703;28;20358;-85
2022/12/09 12:23:59;;;;;;;7.82;2.35;;;13.30;99.90;;;;;;4225612;28;20043;-85
2022/12/09 12:26:33;;;;;;;14.88;3.80;;;13.30;99.90;;;;;;4212741;28;20051;-85
2022/12/09 12:29:26;;;;;;;6.72;3.17;;;13.30;99.90;;;;;;4215925;28;20044;-85
2022/12/09 12:32:29;;;;;;;6.13;3.40;;;13.30;99.90;;;;;;4227972;28;20088;-85
2022/12/09 12:35:11;;;;;;;7.50;3.97;;;13.40;99.90;;;;;;4232159;28;20061;-85
2022/12/09 12:37:52;;;;;;;5.95;2.40;;;13.40;99.90;;;;;;4214960;28;20040;-85
2022/12/09 12:40:27;;;;;;;13.45;4.63;;;13.50;99.90;;;;;;4213983;28;20314;-83
2022/12/09 12:46:15;;;;;;;7.13;3.50;;;13.50;99.90;;;;;;4232123;28;20059;-82
2022/12/09 12:49:07;;;;;;;7.72;3.63;;;13.50;99.90;;;;;;4214840;28;20288;-82
2022/12/09 12:51:46;;;;;;;4.75;3.20;;;13.50;99.90;;;;;;4233967;28;20062;-82